Time;durP1;ratioP1;P1;durP2;ratioP2;P2;SDS_P1;SDS_P2;PMS_P1;PMS_P2;Temp;Humidity;BMP_temperature;BMP_pressure;BME280_temperature;BME280_humidity;BME280_pressure;Samples;Min_cycle;Max_cycle;Signal;HPM_P1;HPM_P2
2021/03/31 00:02:17;;;;;;;34.35;18.10;;;9.80;99.90;;;;;;5026949;28;20053;-83
2021/03/31 00:04:43;;;;;;;35.65;19.25;;;9.80;99.90;;;;;;5022587;28;20478;-83
2021/03/31 00:07:11;;;;;;;31.75;19.90;;;9.70;99.90;;;;;;5025706;28;20045;-83
2021/03/31 00:09:38;;;;;;;33.67;18.88;;;9.60;99.90;;;;;;5024684;28;20050;-83
2021/03/31 00:12:07;;;;;;;39.97;20.33;;;9.60;99.90;;;;;;5028417;28;20034;-83
2021/03/31 00:14:34;;;;;;;40.42;19.67;;;9.50;99.90;;;;;;5024160;28;20038;-83
2021/03/31 00:17:02;;;;;;;38.85;20.15;;;9.50;99.90;;;;;;5024830;28;20067;-83
2021/03/31 00:19:29;;;;;;;38.42;19.77;;;9.50;99.90;;;;;;5028965;28;20109;-83
2021/03/31 00:21:55;;;;;;;35.90;20.08;;;9.50;99.90;;;;;;5025412;28;20046;-83
2021/03/31 00:24:21;;;;;;;35.40;18.67;;;9.40;99.90;;;;;;5025187;28;20050;-83
2021/03/31 00:26:47;;;;;;;38.92;19.65;;;9.40;99.90;;;;;;5024830;28;20045;-83
2021/03/31 00:29:13;;;;;;;35.75;19.30;;;9.30;99.90;;;;;;5024959;28;20057;-83
2021/03/31 00:31:40;;;;;;;38.80;19.98;;;9.40;99.90;;;;;;5026554;28;20041;-83
2021/03/31 00:34:07;;;;;;;32.53;18.98;;;9.30;99.90;;;;;;5024039;28;20049;-86
2021/03/31 00:36:33;;;;;;;33.60;18.73;;;9.30;99.90;;;;;;5023934;28;20057;-84
2021/03/31 00:38:59;;;;;;;36.63;20.50;;;9.30;99.90;;;;;;5024551;28;20053;-84
2021/03/31 00:41:26;;;;;;;34.00;18.98;;;9.20;99.90;;;;;;5025793;28;20540;-83
2021/03/31 00:43:52;;;;;;;33.15;18.75;;;9.20;99.90;;;;;;5026964;28;20488;-84
2021/03/31 00:46:18;;;;;;;37.08;20.15;;;9.10;99.90;;;;;;5026240;28;20057;-83
2021/03/31 00:48:45;;;;;;;36.05;19.40;;;9.10;99.90;;;;;;5026509;28;20053;-84
2021/03/31 00:51:11;;;;;;;35.03;19.05;;;9.10;99.90;;;;;;5024924;28;20049;-83
2021/03/31 00:53:42;;;;;;;34.55;19.15;;;9.00;99.90;;;;;;5026849;28;20037;-83
2021/03/31 00:56:11;;;;;;;36.78;18.95;;;9.00;99.90;;;;;;5025780;28;20043;-84
2021/03/31 00:58:38;;;;;;;39.00;19.40;;;9.00;99.90;;;;;;5025179;28;20053;-84
2021/03/31 01:01:06;;;;;;;35.95;20.17;;;8.90;99.90;;;;;;5028491;28;20069;-84
2021/03/31 01:03:32;;;;;;;35.17;19.35;;;8.90;99.90;;;;;;5039811;28;20102;-84
2021/03/31 01:05:58;;;;;;;35.90;18.08;;;8.80;99.90;;;;;;5029337;28;20037;-84
2021/03/31 01:08:24;;;;;;;39.17;19.60;;;8.80;99.90;;;;;;5027067;28;20076;-83
2021/03/31 01:10:55;;;;;;;30.88;17.67;;;8.80;99.90;;;;;;5025618;28;20050;-84
2021/03/31 01:13:45;;;;;;;36.60;18.95;;;8.70;99.90;;;;;;5027632;28;20100;-83
2021/03/31 01:16:20;;;;;;;39.95;19.73;;;8.70;99.90;;;;;;5037958;28;20048;-84
2021/03/31 01:18:56;;;;;;;37.10;18.88;;;8.70;99.90;;;;;;5045546;28;20076;-84
2021/03/31 01:22:09;;;;;;;38.40;18.77;;;8.70;99.90;;;;;;5027681;28;20034;-84
2021/03/31 01:25:13;;;;;;;36.90;17.50;;;8.70;99.90;;;;;;5025456;28;20127;-84
2021/03/31 01:27:48;;;;;;;37.42;18.80;;;8.60;99.90;;;;;;5025374;28;20048;-84
2021/03/31 01:30:38;;;;;;;35.70;18.92;;;8.60;99.90;;;;;;5028307;28;20071;-84
2021/03/31 01:33:29;;;;;;;34.92;18.05;;;8.60;99.90;;;;;;5028392;28;20045;-84
2021/03/31 01:35:55;;;;;;;35.70;17.55;;;8.50;99.90;;;;;;5042210;28;20045;-83
2021/03/31 01:38:24;;;;;;;38.08;17.80;;;8.50;99.90;;;;;;5029576;28;20055;-84
2021/03/31 01:40:53;;;;;;;38.72;18.23;;;8.50;99.90;;;;;;5030267;28;20053;-84
2021/03/31 01:43:22;;;;;;;37.15;19.58;;;8.40;99.90;;;;;;5027692;28;20409;-83
2021/03/31 01:45:55;;;;;;;35.22;18.10;;;8.40;99.90;;;;;;5027011;28;20059;-84
2021/03/31 01:48:25;;;;;;;36.63;18.98;;;8.40;99.90;;;;;;5024490;28;20132;-84
2021/03/31 01:50:58;;;;;;;35.38;18.90;;;8.40;99.90;;;;;;5031880;28;20049;-83
2021/03/31 01:53:26;;;;;;;35.28;17.75;;;8.40;99.90;;;;;;5025879;28;20065;-84
2021/03/31 01:55:54;;;;;;;34.17;18.52;;;8.30;99.90;;;;;;5025456;28;20053;-84
2021/03/31 01:58:22;;;;;;;38.28;17.67;;;8.30;99.90;;;;;;5045846;28;20037;-84
2021/03/31 02:00:49;;;;;;;36.13;18.38;;;8.30;99.90;;;;;;5044109;28;20052;-84
2021/03/31 02:03:18;;;;;;;34.10;17.83;;;8.20;99.90;;;;;;5024665;28;20104;-83
2021/03/31 02:05:45;;;;;;;34.75;18.42;;;8.20;99.90;;;;;;5046256;28;20084;-84
2021/03/31 02:08:13;;;;;;;42.97;17.73;;;8.20;99.90;;;;;;5043947;28;20065;-84
2021/03/31 02:10:41;;;;;;;33.60;17.73;;;8.20;99.90;;;;;;5028343;28;20096;-84
2021/03/31 02:13:10;;;;;;;35.55;18.05;;;8.10;99.90;;;;;;5032338;28;20080;-84
2021/03/31 02:15:38;;;;;;;37.42;18.27;;;8.10;99.90;;;;;;5027344;28;20074;-84
2021/03/31 02:18:11;;;;;;;34.47;18.70;;;8.00;99.90;;;;;;5038551;28;20665;-83
2021/03/31 02:20:38;;;;;;;;;;;8.00;99.90;;;;;;5028975;28;20052;-84
2021/03/31 02:23:05;;;;;;;39.90;18.17;;;8.00;99.90;;;;;;5032241;28;19925;-83
2021/03/31 02:25:32;;;;;;;39.22;17.60;;;8.00;99.90;;;;;;5026768;28;20064;-84
2021/03/31 02:27:59;;;;;;;34.63;17.70;;;8.00;99.90;;;;;;5042672;28;20048;-83
2021/03/31 02:30:28;;;;;;;39.85;18.38;;;8.00;99.90;;;;;;5026568;28;20056;-83
2021/03/31 02:32:59;;;;;;;31.80;17.33;;;7.90;99.90;;;;;;5026471;28;20045;-83
2021/03/31 02:35:28;;;;;;;34.33;16.83;;;7.90;99.90;;;;;;5026050;28;20061;-83
2021/03/31 02:38:01;;;;;;;37.05;17.10;;;7.90;99.90;;;;;;5027770;28;20081;-83
2021/03/31 02:40:29;;;;;;;37.60;17.52;;;7.90;99.90;;;;;;5026375;28;20052;-83
2021/03/31 02:42:58;;;;;;;38.30;17.40;;;7.90;99.90;;;;;;5026738;28;20049;-83
2021/03/31 02:45:26;;;;;;;35.63;17.13;;;7.80;99.90;;;;;;5034252;28;20139;-83
2021/03/31 02:47:56;;;;;;;33.85;16.42;;;7.80;99.90;;;;;;5024802;28;20045;-83
2021/03/31 02:50:25;;;;;;;35.38;17.60;;;7.80;99.90;;;;;;5028457;28;20037;-83
2021/03/31 02:52:53;;;;;;;35.75;17.65;;;7.70;99.90;;;;;;5042074;28;20049;-83
2021/03/31 02:55:23;;;;;;;41.95;17.80;;;7.70;99.90;;;;;;5027272;28;20059;-83
2021/03/31 02:57:51;;;;;;;39.15;17.33;;;7.70;99.90;;;;;;5025312;28;20088;-83
2021/03/31 03:00:18;;;;;;;41.33;17.33;;;7.70;99.90;;;;;;5024133;28;20096;-83
2021/03/31 03:02:46;;;;;;;32.15;15.27;;;7.60;99.90;;;;;;5031527;28;20048;-83
2021/03/31 03:05:18;;;;;;;40.92;17.23;;;7.60;99.90;;;;;;5027253;28;20064;-83
2021/03/31 03:07:44;;;;;;;34.58;17.38;;;7.60;99.90;;;;;;5026946;28;20478;-83
2021/03/31 03:10:11;;;;;;;34.40;16.92;;;7.60;99.90;;;;;;5032138;28;20087;-83
2021/03/31 03:12:50;;;;;;;35.67;16.20;;;7.50;99.90;;;;;;5028754;28;20566;-83
2021/03/31 03:15:19;;;;;;;38.95;17.23;;;7.50;99.90;;;;;;5028549;28;20072;-83
2021/03/31 03:17:46;;;;;;;38.67;17.00;;;7.50;99.90;;;;;;5029234;28;20669;-83
2021/03/31 03:20:13;;;;;;;36.65;16.58;;;7.50;99.90;;;;;;5047790;28;20098;-83
2021/03/31 03:22:43;;;;;;;36.03;17.02;;;7.40;99.90;;;;;;5033756;28;20057;-83
2021/03/31 03:25:11;;;;;;;32.42;15.98;;;7.40;99.90;;;;;;5043140;28;20109;-83
2021/03/31 03:27:41;;;;;;;35.22;16.58;;;7.40;99.90;;;;;;5032204;28;20140;-83
2021/03/31 03:30:12;;;;;;;38.60;17.42;;;7.40;99.90;;;;;;5045806;28;20048;-83
2021/03/31 03:32:40;;;;;;;38.58;17.65;;;7.40;99.90;;;;;;5048936;28;20112;-83
2021/03/31 03:35:17;;;;;;;38.72;17.13;;;7.40;99.90;;;;;;5028594;28;20073;-83
2021/03/31 03:37:45;;;;;;;43.20;17.33;;;7.30;99.90;;;;;;5048371;28;20083;-83
2021/03/31 03:40:14;;;;;;;37.22;16.02;;;7.30;99.90;;;;;;5036515;28;20076;-82
2021/03/31 03:42:41;;;;;;;37.95;16.15;;;7.30;99.90;;;;;;5030599;28;20052;-83
2021/03/31 03:45:09;;;;;;;36.83;16.75;;;7.20;99.90;;;;;;5048883;28;20071;-83
2021/03/31 03:47:39;;;;;;;37.25;16.35;;;7.20;99.90;;;;;;5031204;28;20068;-83
2021/03/31 03:50:10;;;;;;;34.58;17.17;;;7.20;99.90;;;;;;5030480;28;20100;-83
2021/03/31 03:52:38;;;;;;;41.45;17.88;;;7.20;99.90;;;;;;5028740;28;20041;-84
2021/03/31 03:55:07;;;;;;;40.83;17.17;;;7.20;99.90;;;;;;5029845;28;20049;-84
2021/03/31 03:57:34;;;;;;;43.45;17.13;;;7.10;99.90;;;;;;5027406;28;20039;-83
2021/03/31 04:00:10;;;;;;;36.97;17.30;;;7.10;99.90;;;;;;5028390;28;20099;-84
2021/03/31 04:02:36;;;;;;;41.85;16.38;;;7.10;99.90;;;;;;5046552;28;20072;-84
2021/03/31 04:05:04;;;;;;;35.42;18.15;;;7.00;99.90;;;;;;5027368;28;20168;-84
2021/03/31 04:07:30;;;;;;;40.13;17.17;;;7.00;99.90;;;;;;5026830;28;20048;-84
2021/03/31 04:09:59;;;;;;;38.92;17.48;;;7.00;99.90;;;;;;5027645;28;20530;-83
2021/03/31 04:12:27;;;;;;;34.15;16.38;;;7.00;99.90;;;;;;5035343;28;20182;-84
2021/03/31 04:14:54;;;;;;;38.83;18.15;;;6.90;99.90;;;;;;5028692;28;20037;-84
2021/03/31 04:17:22;;;;;;;40.15;16.08;;;6.90;99.90;;;;;;5031306;28;20068;-83
2021/03/31 04:19:50;;;;;;;42.30;17.58;;;6.90;99.90;;;;;;5031005;28;20132;-82
2021/03/31 04:22:16;;;;;;;35.55;16.42;;;6.90;99.90;;;;;;5029878;28;20103;-83
2021/03/31 04:24:43;;;;;;;33.92;16.38;;;6.90;99.90;;;;;;5029713;28;20060;-84
2021/03/31 04:27:11;;;;;;;38.00;16.70;;;6.90;99.90;;;;;;5034304;28;20045;-84
2021/03/31 04:29:41;;;;;;;34.33;16.88;;;6.80;99.90;;;;;;5028833;28;20045;-83
2021/03/31 04:32:18;;;;;;;34.10;16.80;;;6.80;99.90;;;;;;5031296;28;20052;-83
2021/03/31 04:34:45;;;;;;;39.75;16.92;;;6.80;99.90;;;;;;5031327;28;20053;-83
2021/03/31 04:37:14;;;;;;;40.90;17.00;;;6.70;99.90;;;;;;5028826;28;20083;-83
2021/03/31 04:39:41;;;;;;;38.95;18.17;;;6.70;99.90;;;;;;5031301;28;20099;-82
2021/03/31 04:42:08;;;;;;;35.95;16.70;;;6.70;99.90;;;;;;5027152;28;20053;-82
2021/03/31 04:44:35;;;;;;;37.53;16.90;;;6.70;99.90;;;;;;5031885;28;20119;-83
2021/03/31 04:47:03;;;;;;;40.08;16.33;;;6.70;99.90;;;;;;5032017;28;20113;-83
2021/03/31 04:49:29;;;;;;;34.95;16.52;;;6.70;99.90;;;;;;5028645;28;20107;-83
2021/03/31 04:51:55;;;;;;;36.10;16.35;;;6.60;99.90;;;;;;5027748;28;20496;-83
2021/03/31 04:54:22;;;;;;;42.25;17.95;;;6.60;99.90;;;;;;5029626;28;20075;-83
2021/03/31 04:56:50;;;;;;;39.75;17.58;;;6.60;99.90;;;;;;5026589;28;20518;-83
2021/03/31 04:59:16;;;;;;;37.42;17.23;;;6.50;99.90;;;;;;5046842;28;20140;-83
2021/03/31 05:01:43;;;;;;;38.35;16.95;;;6.50;99.90;;;;;;5048520;28;20059;-84
2021/03/31 05:04:09;;;;;;;37.03;16.50;;;6.50;99.90;;;;;;5029576;28;20049;-84
2021/03/31 05:06:35;;;;;;;41.75;17.48;;;6.50;99.90;;;;;;5046003;28;20034;-83
2021/03/31 05:09:02;;;;;;;37.35;17.70;;;6.50;99.90;;;;;;5033328;28;20109;-83
2021/03/31 05:11:29;;;;;;;40.08;18.75;;;6.40;99.90;;;;;;5045897;28;20128;-83
2021/03/31 05:13:55;;;;;;;45.00;19.88;;;6.50;99.90;;;;;;5029917;28;20049;-83
2021/03/31 05:16:21;;;;;;;42.80;18.42;;;6.40;99.90;;;;;;5034808;28;20056;-83
2021/03/31 05:18:48;;;;;;;42.33;17.55;;;6.40;99.90;;;;;;5031482;28;20111;-83
2021/03/31 05:21:14;;;;;;;41.05;18.08;;;6.40;99.90;;;;;;5028250;28;20053;-83
2021/03/31 05:23:40;;;;;;;35.83;16.35;;;6.40;99.90;;;;;;5044275;28;20061;-84
2021/03/31 05:26:06;;;;;;;37.15;17.15;;;6.40;99.90;;;;;;5029002;28;20053;-83
2021/03/31 05:28:33;;;;;;;37.30;17.67;;;6.40;99.90;;;;;;5032376;28;20077;-83
2021/03/31 05:30:59;;;;;;;37.67;17.52;;;6.40;99.90;;;;;;5030823;28;20052;-83
2021/03/31 05:33:25;;;;;;;39.90;17.42;;;6.40;99.90;;;;;;5030224;28;20072;-83
2021/03/31 05:35:51;;;;;;;39.53;17.75;;;6.40;99.90;;;;;;5031912;28;20481;-83
2021/03/31 05:38:18;;;;;;;42.30;18.02;;;6.40;99.90;;;;;;5032733;28;20052;-84
2021/03/31 05:40:45;;;;;;;42.92;19.65;;;6.40;99.90;;;;;;5029842;28;20057;-83
2021/03/31 05:43:11;;;;;;;38.70;18.30;;;6.50;99.90;;;;;;5030633;28;20041;-84
2021/03/31 05:45:40;;;;;;;36.38;17.13;;;6.50;99.90;;;;;;5026579;28;20126;-84
2021/03/31 05:48:07;;;;;;;39.83;17.95;;;6.50;99.90;;;;;;5020621;28;20075;-84
2021/03/31 05:50:33;;;;;;;39.40;17.48;;;6.50;99.90;;;;;;5041300;28;20049;-83
2021/03/31 05:53:01;;;;;;;36.10;17.40;;;6.50;99.90;;;;;;5029038;28;20508;-84
2021/03/31 05:55:28;;;;;;;41.60;18.20;;;6.60;99.90;;;;;;5040219;28;20053;-84
2021/03/31 05:57:58;;;;;;;42.00;17.90;;;6.60;99.90;;;;;;5030921;28;20055;-85
2021/03/31 06:00:25;;;;;;;47.22;19.45;;;6.60;99.90;;;;;;5030139;28;20045;-84
2021/03/31 06:02:51;;;;;;;48.38;17.92;;;6.60;99.90;;;;;;5039916;28;20412;-84
2021/03/31 06:05:18;;;;;;;49.08;17.17;;;6.70;99.90;;;;;;5031700;28;20128;-84
2021/03/31 06:07:47;;;;;;;40.95;17.92;;;6.80;99.90;;;;;;5027680;28;20555;-84
2021/03/31 06:10:17;;;;;;;42.83;20.00;;;6.80;99.90;;;;;;5027530;28;20061;-84
2021/03/31 06:12:58;;;;;;;40.50;18.42;;;6.90;99.90;;;;;;5034887;28;20073;-84
2021/03/31 06:15:32;;;;;;;42.47;18.55;;;7.00;99.90;;;;;;5024374;28;20563;-81
2021/03/31 06:18:08;;;;;;;41.20;18.42;;;7.10;99.90;;;;;;5027031;28;20105;-84
2021/03/31 06:20:59;;;;;;;47.00;22.60;;;7.20;99.90;;;;;;5028618;28;20061;-83
2021/03/31 06:26:23;;;;;;;61.67;22.13;;;7.40;99.90;;;;;;5034581;28;20103;-84
2021/03/31 06:28:59;;;;;;;43.63;18.52;;;7.50;99.90;;;;;;5013075;28;20045;-83
2021/03/31 06:31:48;;;;;;;44.45;20.38;;;7.70;99.90;;;;;;5019128;28;20088;-84
2021/03/31 06:34:28;;;;;;;45.30;19.63;;;7.90;99.90;;;;;;5023461;28;20048;-83
2021/03/31 06:37:01;;;;;;;44.55;19.70;;;8.30;99.90;;;;;;5022326;28;20041;-84
2021/03/31 06:39:35;;;;;;;46.40;18.55;;;8.80;99.90;;;;;;5022309;28;20072;-82
2021/03/31 06:42:15;;;;;;;40.42;18.80;;;9.30;99.90;;;;;;5037946;28;20051;-86
2021/03/31 06:45:00;;;;;;;41.00;18.10;;;9.70;99.90;;;;;;5023279;28;20049;-82
2021/03/31 06:49:55;;;;;;;42.95;19.52;;;10.50;99.90;;;;;;5040740;28;20136;-83
2021/03/31 06:52:21;;;;;;;41.53;18.52;;;10.90;99.90;;;;;;5021949;28;20049;-85
2021/03/31 06:54:51;;;;;;;45.28;21.38;;;11.30;99.90;;;;;;5026198;28;20380;-81
2021/03/31 06:57:24;;;;;;;41.78;19.77;;;11.80;99.90;;;;;;5025510;28;20059;-81
2021/03/31 07:00:12;;;;;;;42.78;19.58;;;12.30;99.90;;;;;;5045711;28;20497;-81
2021/03/31 07:02:40;;;;;;;36.05;17.92;;;12.80;99.90;;;;;;5031390;28;20052;-82
2021/03/31 07:05:08;;;;;;;41.63;19.17;;;13.10;99.90;;;;;;5033172;28;20044;-82
2021/03/31 07:07:41;;;;;;;37.55;18.88;;;13.30;98.60;;;;;;5020871;28;20105;-84
2021/03/31 07:10:11;;;;;;;46.38;18.65;;;13.30;97.30;;;;;;5032762;28;20107;-82
2021/03/31 07:12:39;;;;;;;41.97;20.70;;;13.20;95.60;;;;;;5056110;28;20049;-83
2021/03/31 07:15:08;;;;;;;43.10;18.83;;;13.20;96.00;;;;;;5033462;28;20053;-83
2021/03/31 07:17:35;;;;;;;39.22;20.55;;;13.20;95.20;;;;;;5027678;28;20064;-82
2021/03/31 07:20:02;;;;;;;40.10;19.42;;;13.20;95.70;;;;;;5032133;28;20562;-82
2021/03/31 07:22:28;;;;;;;43.42;18.80;;;13.20;95.90;;;;;;5034484;28;20056;-81
2021/03/31 07:24:56;;;;;;;41.90;19.58;;;13.20;95.10;;;;;;5029590;28;20033;-81
2021/03/31 07:27:26;;;;;;;38.05;19.23;;;13.20;95.40;;;;;;5045547;28;20045;-80
2021/03/31 07:30:06;;;;;;;38.47;17.55;;;13.30;95.80;;;;;;5019336;28;20485;-81
2021/03/31 07:32:53;;;;;;;39.33;18.13;;;13.30;92.30;;;;;;5017876;28;20045;-83
2021/03/31 07:35:26;;;;;;;42.15;18.42;;;13.30;91.00;;;;;;5021093;28;20628;-83
2021/03/31 07:37:53;;;;;;;47.53;19.50;;;13.30;91.30;;;;;;5017616;28;20451;-80
2021/03/31 07:40:20;;;;;;;39.67;19.63;;;13.30;92.50;;;;;;5036606;28;20049;-82
2021/03/31 07:43:08;;;;;;;39.13;18.98;;;13.40;93.70;;;;;;5021651;28;20481;-81
2021/03/31 07:45:39;;;;;;;36.70;19.15;;;13.50;93.70;;;;;;5035030;28;20049;-82
2021/03/31 07:48:07;;;;;;;32.00;17.25;;;13.60;94.40;;;;;;5019459;28;20123;-81
2021/03/31 07:50:34;;;;;;;42.92;21.02;;;13.70;93.40;;;;;;5017916;28;20100;-81
2021/03/31 07:53:03;;;;;;;41.85;18.98;;;13.80;92.40;;;;;;5025254;28;20317;-82
2021/03/31 07:55:29;;;;;;;35.97;19.08;;;13.90;93.60;;;;;;5023157;28;20074;-82
2021/03/31 07:58:25;;;;;;;35.67;19.85;;;14.10;92.50;;;;;;5024570;28;20059;-82
2021/03/31 08:00:54;;;;;;;34.70;19.38;;;14.30;91.30;;;;;;5041840;28;20104;-81
2021/03/31 08:03:25;;;;;;;38.40;19.20;;;14.40;92.50;;;;;;5039418;28;20073;-81
2021/03/31 08:06:04;;;;;;;37.65;20.65;;;14.60;93.60;;;;;;5022309;28;20076;-79
2021/03/31 08:08:32;;;;;;;39.20;19.80;;;14.70;92.70;;;;;;5026946;28;20124;-81
2021/03/31 08:11:02;;;;;;;35.42;20.52;;;14.90;93.10;;;;;;5038451;28;20049;-84
2021/03/31 08:13:32;;;;;;;34.35;19.33;;;14.90;92.40;;;;;;5017450;28;20036;-79
2021/03/31 08:16:01;;;;;;;35.67;18.85;;;15.10;92.10;;;;;;5024623;28;20163;-80
2021/03/31 08:18:29;;;;;;;34.90;19.40;;;15.20;92.10;;;;;;5022001;28;22137;-79
2021/03/31 08:20:55;;;;;;;30.65;18.88;;;15.30;90.40;;;;;;5021758;28;20053;-82
2021/03/31 08:23:45;;;;;;;38.92;19.75;;;15.50;84.40;;;;;;5023018;28;20146;-81
2021/03/31 08:26:34;;;;;;;38.85;21.38;;;15.60;78.90;;;;;;5022621;28;20073;-80
2021/03/31 08:29:03;;;;;;;39.83;20.92;;;15.70;77.50;;;;;;5041685;28;20594;-80
2021/03/31 08:31:39;;;;;;;40.85;20.27;;;15.80;78.10;;;;;;5024501;28;20050;-80
2021/03/31 08:34:09;;;;;;;42.50;20.60;;;15.90;78.80;;;;;;5028165;28;20424;-81
2021/03/31 08:36:41;;;;;;;36.67;20.75;;;16.10;79.20;;;;;;5026464;28;20041;-81
2021/03/31 08:39:09;;;;;;;40.22;21.38;;;16.20;77.60;;;;;;5025376;28;20056;-81
2021/03/31 08:41:41;;;;;;;38.92;20.80;;;16.40;75.70;;;;;;5040056;28;20072;-81
2021/03/31 08:46:49;;;;;;;41.40;22.30;;;16.50;77.80;;;;;;5041689;28;20113;-81
2021/03/31 08:49:31;;;;;;;36.47;20.67;;;16.60;78.00;;;;;;5024741;28;20052;-81
2021/03/31 08:52:03;;;;;;;39.40;21.55;;;16.80;79.90;;;;;;5021776;28;20393;-81
2021/03/31 08:54:38;;;;;;;41.35;22.38;;;17.00;78.20;;;;;;5025544;28;20057;-81
2021/03/31 08:57:23;;;;;;;40.10;21.90;;;17.10;76.80;;;;;;5031985;28;20403;-82
2021/03/31 08:59:53;;;;;;;40.28;21.90;;;17.20;74.10;;;;;;5024181;28;20487;-82
2021/03/31 09:02:23;;;;;;;47.75;23.60;;;17.40;74.10;;;;;;5028493;28;20049;-82
2021/03/31 09:05:05;;;;;;;43.40;22.38;;;17.50;72.50;;;;;;5037724;28;20076;-82
2021/03/31 09:07:32;;;;;;;45.03;23.30;;;17.60;72.20;;;;;;5023092;28;20079;-82
2021/03/31 09:09:59;;;;;;;39.05;23.17;;;17.70;71.10;;;;;;5023323;28;20576;-82
2021/03/31 09:12:28;;;;;;;38.80;23.17;;;17.90;73.10;;;;;;5022259;28;20053;-82
2021/03/31 09:15:00;;;;;;;46.80;22.85;;;18.00;72.90;;;;;;5040045;28;20057;-81
2021/03/31 09:17:30;;;;;;;43.67;22.73;;;18.20;70.90;;;;;;5025465;28;20138;-82
2021/03/31 09:19:59;;;;;;;39.20;22.23;;;18.30;71.00;;;;;;5020737;28;20053;-82
2021/03/31 09:22:29;;;;;;;39.25;23.27;;;18.40;70.90;;;;;;5022909;28;20051;-82
2021/03/31 09:24:59;;;;;;;42.72;24.17;;;18.60;71.70;;;;;;5021972;28;20108;-82
2021/03/31 09:27:31;;;;;;;39.55;23.30;;;18.70;69.90;;;;;;5025330;28;20092;-82
2021/03/31 09:30:04;;;;;;;43.00;23.80;;;18.90;68.00;;;;;;5022235;28;20073;-82
2021/03/31 09:32:35;;;;;;;41.28;23.63;;;19.10;68.00;;;;;;5024859;28;20048;-82
2021/03/31 09:35:17;;;;;;;49.05;24.85;;;19.30;66.70;;;;;;5025643;28;20516;-81
2021/03/31 09:37:50;;;;;;;50.03;24.20;;;19.30;64.20;;;;;;5027861;28;20055;-81
2021/03/31 09:40:37;;;;;;;43.15;24.60;;;19.40;63.40;;;;;;5030279;28;20053;-81
2021/03/31 09:43:08;;;;;;;47.35;24.88;;;19.60;63.80;;;;;;5022197;28;20072;-81
2021/03/31 09:45:35;;;;;;;39.78;22.52;;;19.70;62.50;;;;;;5029452;28;20049;-81
2021/03/31 09:48:03;;;;;;;42.83;23.60;;;19.90;65.00;;;;;;5032264;28;20055;-80
2021/03/31 09:50:33;;;;;;;42.67;23.52;;;20.10;63.70;;;;;;5025436;28;20045;-80
2021/03/31 09:53:01;;;;;;;43.92;24.67;;;20.30;61.30;;;;;;5025458;28;20049;-79
2021/03/31 09:55:29;;;;;;;44.90;24.38;;;20.50;61.90;;;;;;5030764;28;20053;-81
2021/03/31 09:57:56;;;;;;;47.67;25.60;;;20.70;61.40;;;;;;5025445;28;20576;-82
2021/03/31 10:00:24;;;;;;;46.15;26.38;;;20.90;60.90;;;;;;5027903;28;20053;-83
2021/03/31 10:02:52;;;;;;;45.83;24.77;;;21.00;58.60;;;;;;5041245;28;20135;-82
2021/03/31 10:05:21;;;;;;;49.38;26.15;;;21.10;58.10;;;;;;5028230;28;20057;-82
2021/03/31 10:07:58;;;;;;;41.40;25.02;;;21.40;57.50;;;;;;5027686;28;20558;-81
2021/03/31 10:10:40;;;;;;;54.05;27.20;;;21.50;54.60;;;;;;5047153;28;20545;-83
2021/03/31 10:13:07;;;;;;;47.65;27.35;;;21.60;54.20;;;;;;5026101;28;20045;-80
2021/03/31 10:15:33;;;;;;;48.40;25.77;;;21.70;56.70;;;;;;5019600;28;20652;-80
2021/03/31 10:18:03;;;;;;;52.10;27.38;;;21.90;57.30;;;;;;5003561;28;20060;-78
2021/03/31 10:20:32;;;;;;;47.13;27.60;;;21.90;56.60;;;;;;5017350;28;20056;-83
2021/03/31 10:22:58;;;;;;;46.53;25.88;;;22.10;55.60;;;;;;5019569;28;20053;-79
2021/03/31 10:25:44;;;;;;;44.70;25.08;;;22.30;53.00;;;;;;5021978;28;20120;-79
2021/03/31 10:28:39;;;;;;;47.28;25.73;;;22.40;53.50;;;;;;5019960;28;20057;-79
2021/03/31 10:31:33;;;;;;;40.17;24.48;;;22.50;51.90;;;;;;5032088;28;20087;-80
2021/03/31 10:34:14;;;;;;;48.90;25.10;;;22.70;52.80;;;;;;5022658;28;20071;-81
2021/03/31 10:48:36;;;;;;;45.10;25.77;;;23.50;48.60;;;;;;5034740;28;20044;-81
2021/03/31 10:51:14;;;;;;;53.20;26.38;;;23.70;48.60;;;;;;5020936;28;20054;-82
2021/03/31 10:53:52;;;;;;;50.72;27.17;;;23.90;46.50;;;;;;5022197;28;20467;-82
2021/03/31 10:56:18;;;;;;;51.33;28.17;;;24.00;46.80;;;;;;5023491;28;20529;-81
2021/03/31 10:58:44;;;;;;;50.72;29.10;;;24.20;46.30;;;;;;5017478;28;20156;-81
2021/03/31 11:01:11;;;;;;;49.58;27.73;;;24.30;46.90;;;;;;5022669;28;20045;-81
2021/03/31 11:03:37;;;;;;;44.50;24.23;;;24.30;46.60;;;;;;5038739;28;20059;-80
2021/03/31 11:06:04;;;;;;;48.55;25.90;;;24.50;43.80;;;;;;5018576;28;20045;-80
2021/03/31 11:08:30;;;;;;;45.78;24.00;;;24.60;44.20;;;;;;5018568;28;20062;-80
2021/03/31 11:10:57;;;;;;;49.55;25.48;;;24.60;42.40;;;;;;5017830;28;20055;-80
2021/03/31 11:13:23;;;;;;;44.33;27.08;;;24.70;41.60;;;;;;5017282;28;20122;-80
2021/03/31 11:15:52;;;;;;;46.53;24.52;;;24.70;42.60;;;;;;5010305;28;20073;-80
2021/03/31 11:18:25;;;;;;;47.47;25.98;;;24.90;44.90;;;;;;5022306;28;20237;-80
2021/03/31 11:26:12;;;;;;;39.50;22.98;;;25.40;44.10;;;;;;5026995;28;20045;-80
2021/03/31 11:28:38;;;;;;;41.50;23.02;;;25.50;39.20;;;;;;5018844;28;20044;-82
2021/03/31 11:31:05;;;;;;;46.20;25.60;;;25.50;41.30;;;;;;5041700;28;20065;-81
2021/03/31 11:33:33;;;;;;;46.90;26.58;;;25.60;38.50;;;;;;5021854;28;20330;-80
2021/03/31 11:36:00;;;;;;;44.50;24.48;;;25.70;38.70;;;;;;5037309;28;20048;-80
2021/03/31 11:38:27;;;;;;;41.53;24.27;;;25.70;40.30;;;;;;5022558;28;20240;-79
2021/03/31 11:40:54;;;;;;;47.65;25.17;;;25.80;40.70;;;;;;5028592;28;20048;-82
2021/03/31 11:43:20;;;;;;;38.22;22.77;;;25.90;40.80;;;;;;5029316;28;20072;-81
2021/03/31 11:45:47;;;;;;;39.85;20.85;;;26.20;41.00;;;;;;5032688;28;20060;-80
2021/03/31 11:48:15;;;;;;;37.03;20.02;;;26.30;37.10;;;;;;5022511;28;20136;-80
2021/03/31 11:50:42;;;;;;;37.45;20.90;;;26.40;37.50;;;;;;5022080;28;20524;-78
2021/03/31 11:53:09;;;;;;;35.08;20.10;;;26.50;37.50;;;;;;5022944;28;20224;-79
2021/03/31 11:55:36;;;;;;;34.33;16.83;;;26.60;36.90;;;;;;5024949;28;20419;-80
2021/03/31 11:58:03;;;;;;;28.63;16.88;;;26.80;37.30;;;;;;5023944;28;20041;-80
2021/03/31 12:00:29;;;;;;;28.90;15.82;;;27.00;36.10;;;;;;5040609;28;20088;-80
2021/03/31 12:02:56;;;;;;;28.10;16.20;;;27.10;36.90;;;;;;5021042;28;20049;-80
2021/03/31 12:05:22;;;;;;;31.92;19.27;;;27.40;37.80;;;;;;5035565;28;20045;-80
2021/03/31 12:07:49;;;;;;;37.15;19.80;;;27.50;36.90;;;;;;5023346;28;20049;-80
2021/03/31 12:10:15;;;;;;;30.42;18.27;;;27.70;35.00;;;;;;5027025;28;20045;-80
2021/03/31 12:12:42;;;;;;;33.88;19.42;;;27.80;36.40;;;;;;5019183;28;21509;-80
2021/03/31 12:15:12;;;;;;;33.88;19.77;;;27.90;37.00;;;;;;5020304;28;20053;-78
2021/03/31 12:17:40;;;;;;;34.33;19.70;;;28.10;37.80;;;;;;5020094;28;20475;-79
2021/03/31 12:20:10;;;;;;;38.10;21.33;;;28.40;36.90;;;;;;5026887;28;20080;-79
2021/03/31 12:22:36;;;;;;;35.58;20.42;;;28.80;36.00;;;;;;5035861;28;20087;-79
2021/03/31 12:25:04;;;;;;;33.85;20.10;;;29.10;36.70;;;;;;5019539;28;20508;-80
2021/03/31 12:27:33;;;;;;;33.63;18.80;;;29.40;34.80;;;;;;5034497;28;20057;-80
2021/03/31 12:30:03;;;;;;;29.20;17.35;;;29.70;34.60;;;;;;5037975;28;20521;-80
2021/03/31 12:32:30;;;;;;;29.00;16.40;;;30.10;33.70;;;;;;5040475;28;20056;-80
2021/03/31 12:34:57;;;;;;;30.90;17.88;;;30.50;33.40;;;;;;5021870;28;20056;-80
2021/03/31 12:37:24;;;;;;;25.23;15.23;;;30.90;31.80;;;;;;5022377;28;20071;-80
2021/03/31 12:39:51;;;;;;;27.42;14.50;;;31.40;33.10;;;;;;5041298;28;20082;-81
2021/03/31 12:42:17;;;;;;;26.92;15.20;;;31.70;32.00;;;;;;5038390;28;20053;-79
2021/03/31 12:44:43;;;;;;;24.25;15.70;;;32.20;30.70;;;;;;5020642;28;20057;-79
2021/03/31 12:47:14;;;;;;;26.75;15.88;;;32.70;31.20;;;;;;5020968;28;20052;-80
2021/03/31 12:49:40;;;;;;;28.15;17.27;;;33.20;30.70;;;;;;5019646;28;20326;-80
2021/03/31 12:52:10;;;;;;;30.95;17.55;;;33.80;29.60;;;;;;5020339;28;20055;-80
2021/03/31 12:57:10;;;;;;;26.40;17.65;;;34.80;29.90;;;;;;5038162;28;20053;-82
2021/03/31 12:59:36;;;;;;;30.08;16.38;;;35.40;30.00;;;;;;5024874;28;20072;-80
2021/03/31 13:02:23;;;;;;;24.17;15.55;;;35.90;29.70;;;;;;5039019;28;20059;-81
2021/03/31 13:05:10;;;;;;;30.48;18.30;;;36.50;30.80;;;;;;5026691;28;20500;-80
2021/03/31 13:07:56;;;;;;;33.55;16.67;;;37.00;29.10;;;;;;5027905;28;20089;-78
2021/03/31 13:10:45;;;;;;;22.73;16.35;;;37.40;28.80;;;;;;5035117;28;20136;-78
2021/03/31 13:14:00;;;;;;;35.05;19.52;;;37.70;28.60;;;;;;5020693;28;20510;-80
2021/03/31 13:22:58;;;;;;;30.30;19.88;;;38.40;29.20;;;;;;4996839;28;20046;-82
2021/03/31 13:26:11;;;;;;;33.50;21.58;;;38.60;29.00;;;;;;5020631;28;20443;-80